createdAt,value
2019-03-21T00:19:11.706Z,34.63
2019-03-21T00:29:16.651Z,32.73
2019-03-21T01:09:32.843Z,32.83
2019-03-21T01:19:37.446Z,34.35
2019-03-21T02:09:59.258Z,39.30
2019-03-21T03:30:46.289Z,35.78
2019-03-21T03:51:08.923Z,31.77
2019-03-21T04:01:14.260Z,35.38
2019-03-21T04:21:22.815Z,38.25
2019-03-21T04:31:27.296Z,32.75
2019-03-21T04:51:35.650Z,33.42
2019-03-21T05:31:52.648Z,31.45
2019-03-21T06:02:05.220Z,38.15
2019-03-21T06:22:23.125Z,39.70
2019-03-21T06:32:28.521Z,47.62
2019-03-21T07:12:44.670Z,36.83
2019-03-21T07:22:49.465Z,45.90
2019-03-21T08:03:06.612Z,39.73
2019-03-21T08:13:11.251Z,32.10
2019-03-21T08:33:19.623Z,35.13
2019-03-21T08:43:24.223Z,39.47
2019-03-21T09:03:32.643Z,42.23
2019-03-21T09:33:44.662Z,21.90
2019-03-21T10:03:56.658Z,21.57
2019-03-21T10:24:05.262Z,19.20
2019-03-21T10:34:10.224Z,22.10
2019-03-21T10:54:19.215Z,22.05
2019-03-21T11:04:23.685Z,26.20
2019-03-21T11:14:28.631Z,26.23
2019-03-21T11:34:36.660Z,17.23
2019-03-21T11:44:41.300Z,22.85
2019-03-21T12:04:49.700Z,25.45
2019-03-21T12:14:54.294Z,26.70
2019-03-21T12:35:03.110Z,29.25
2019-03-21T12:55:13.087Z,27.02
2019-03-21T13:05:29.393Z,22.02
2019-03-21T13:25:38.050Z,25.97
2019-03-21T13:35:42.634Z,26.27
2019-03-21T13:55:50.639Z,29.23
2019-03-21T14:05:55.477Z,19.48
2019-03-21T14:16:00.226Z,19.60
2019-03-21T14:36:09.134Z,19.02
2019-03-21T14:56:17.607Z,28.85
2019-03-21T15:06:22.241Z,16.52
2019-03-21T15:26:30.596Z,28.05
2019-03-21T15:46:39.021Z,28.70
2019-03-21T15:56:45.231Z,32.78
2019-03-21T16:16:53.868Z,47.08
2019-03-21T16:26:59.144Z,38.17
2019-03-21T16:37:03.820Z,42.55
2019-03-21T16:47:08.349Z,30.60
2019-03-21T17:07:16.667Z,33.98
2019-03-21T17:17:21.246Z,32.67
2019-03-21T17:37:29.611Z,48.45
2019-03-21T17:57:38.242Z,65.83
2019-03-21T18:07:44.551Z,49.30
2019-03-21T18:27:53.228Z,44.15
2019-03-21T18:48:02.133Z,74.20
2019-03-21T18:58:07.121Z,45.38
2019-03-21T19:18:17.365Z,53.45
2019-03-21T19:48:29.638Z,45.30
2019-03-21T19:58:34.330Z,43.70
2019-03-21T20:18:42.660Z,48.65
2019-03-21T20:28:47.308Z,52.17
2019-03-21T21:19:38.341Z,65.75
2019-03-21T22:10:00.369Z,53.35
2019-03-21T22:30:16.287Z,53.52
2019-03-21T22:50:25.283Z,54.03
2019-03-21T23:20:50.315Z,60.80
2019-03-21T23:40:59.155Z,57.80
